Time;durP1;ratioP1;P1;durP2;ratioP2;P2;SDS_P1;SDS_P2;PMS_P1;PMS_P2;Temp;Humidity;BMP_temperature;BMP_pressure;BME280_temperature;BME280_humidity;BME280_pressure;Samples;Min_cycle;Max_cycle;Signal;HPM_P1;HPM_P2
2023/08/30 00:00:21;;;;;;;4.22;3.83;;;15.80;99.90;;;;;;5066586;28;20079;-43
2023/08/30 00:02:46;;;;;;;4.88;4.20;;;15.90;99.90;;;;;;5054474;28;20060;-43
2023/08/30 00:05:12;;;;;;;5.82;4.07;;;15.80;99.90;;;;;;5064783;28;20060;-42
2023/08/30 00:07:38;;;;;;;4.63;4.22;;;15.80;99.90;;;;;;5057219;28;20117;-44
2023/08/30 00:10:04;;;;;;;4.38;3.97;;;15.80;99.90;;;;;;5061886;28;20086;-43
2023/08/30 00:12:30;;;;;;;4.20;3.72;;;15.80;99.90;;;;;;5060458;28;20467;-44
2023/08/30 00:14:56;;;;;;;5.35;4.43;;;15.80;99.90;;;;;;5060088;28;20028;-44
2023/08/30 00:17:22;;;;;;;4.15;3.75;;;15.80;99.90;;;;;;5061226;28;20596;-43
2023/08/30 00:19:48;;;;;;;4.45;4.05;;;15.70;99.90;;;;;;5057695;28;20032;-42
2023/08/30 00:22:14;;;;;;;4.15;3.75;;;15.70;99.90;;;;;;5064778;28;20369;-43
2023/08/30 00:24:39;;;;;;;4.85;4.10;;;15.70;99.90;;;;;;5054043;28;20021;-42
2023/08/30 00:27:05;;;;;;;4.70;4.30;;;15.70;99.90;;;;;;5063902;28;20473;-43
2023/08/30 00:29:31;;;;;;;4.47;4.07;;;15.70;99.90;;;;;;5048648;28;20107;-43
2023/08/30 00:31:57;;;;;;;4.50;4.10;;;15.70;99.90;;;;;;5049499;28;20070;-43
2023/08/30 00:34:22;;;;;;;4.70;4.20;;;15.70;99.90;;;;;;5053355;28;20037;-43
2023/08/30 00:36:49;;;;;;;5.75;4.45;;;15.70;99.90;;;;;;5066394;28;20358;-42
2023/08/30 00:39:17;;;;;;;5.57;4.47;;;15.60;99.90;;;;;;5051901;28;20098;-43
2023/08/30 00:41:42;;;;;;;4.65;4.15;;;15.60;99.90;;;;;;5065236;28;20477;-43
2023/08/30 00:44:08;;;;;;;5.15;4.30;;;15.60;99.90;;;;;;5053826;28;20070;-44
2023/08/30 00:46:34;;;;;;;5.10;4.60;;;15.50;99.90;;;;;;5063674;28;20471;-43
2023/08/30 00:49:00;;;;;;;4.75;4.28;;;15.50;99.90;;;;;;5056214;28;20090;-44
2023/08/30 00:51:27;;;;;;;5.40;4.50;;;15.40;99.90;;;;;;5061981;28;20081;-43
2023/08/30 00:53:54;;;;;;;5.10;4.47;;;15.40;99.90;;;;;;5057746;28;20039;-43
2023/08/30 00:56:26;;;;;;;5.47;4.82;;;15.30;99.90;;;;;;5058556;28;20061;-43
2023/08/30 00:58:52;;;;;;;5.15;4.65;;;15.40;99.90;;;;;;5059573;28;20195;-43
2023/08/30 01:01:18;;;;;;;5.18;4.40;;;15.30;99.90;;;;;;5056747;28;20534;-43
2023/08/30 01:03:44;;;;;;;4.72;4.28;;;15.30;99.90;;;;;;5062733;28;20475;-43
2023/08/30 01:06:09;;;;;;;4.95;4.45;;;15.30;99.90;;;;;;5052854;28;20075;-43
2023/08/30 01:08:36;;;;;;;5.40;4.90;;;15.20;99.90;;;;;;5063540;28;20027;-44
2023/08/30 01:11:12;;;;;;;5.47;4.97;;;15.20;99.90;;;;;;5052980;28;20104;-43
2023/08/30 01:13:44;;;;;;;5.55;4.35;;;15.10;99.90;;;;;;5062991;28;20242;-43
2023/08/30 01:16:10;;;;;;;;;;;15.10;99.90;;;;;;5053488;28;20044;-43
2023/08/30 01:18:39;;;;;;;4.70;4.30;;;15.10;99.90;;;;;;5063713;28;19908;-43
2023/08/30 01:21:09;;;;;;;4.90;4.40;;;15.00;99.90;;;;;;5051942;28;20066;-44
2023/08/30 01:23:41;;;;;;;4.82;4.32;;;15.00;99.90;;;;;;5064986;28;20559;-43
2023/08/30 01:26:16;;;;;;;5.47;4.97;;;14.90;99.90;;;;;;5051748;28;20029;-42
2023/08/30 01:28:42;;;;;;;4.93;4.47;;;14.90;99.90;;;;;;5064159;28;20028;-43
2023/08/30 01:31:13;;;;;;;5.32;4.72;;;14.90;99.90;;;;;;5050708;28;20032;-44
2023/08/30 01:33:42;;;;;;;5.07;4.63;;;14.90;99.90;;;;;;5047259;28;20029;-43
2023/08/30 01:36:09;;;;;;;5.07;4.57;;;14.80;99.90;;;;;;5055981;28;20484;-43
2023/08/30 01:38:36;;;;;;;5.78;4.95;;;14.80;99.90;;;;;;5044705;28;20625;-43
2023/08/30 01:41:05;;;;;;;5.25;4.75;;;14.80;99.90;;;;;;5054289;28;20028;-43
2023/08/30 01:43:32;;;;;;;5.55;4.60;;;14.80;99.90;;;;;;5045278;28;20097;-43
2023/08/30 01:46:05;;;;;;;6.45;4.97;;;14.70;99.90;;;;;;5053936;28;20028;-42
2023/08/30 01:48:34;;;;;;;6.32;4.72;;;14.70;99.90;;;;;;5046351;28;20034;-43
2023/08/30 01:51:00;;;;;;;5.28;4.78;;;14.70;99.90;;;;;;5051614;28;20048;-43
2023/08/30 01:53:26;;;;;;;5.55;5.05;;;14.60;99.90;;;;;;5048698;28;20044;-42
2023/08/30 01:55:58;;;;;;;5.00;4.50;;;14.70;99.90;;;;;;5048634;28;20028;-41
2023/08/30 01:58:23;;;;;;;5.03;4.53;;;14.70;99.90;;;;;;5050221;28;20134;-43
2023/08/30 02:00:49;;;;;;;4.70;4.30;;;14.70;99.90;;;;;;5047837;28;20473;-42
2023/08/30 02:03:15;;;;;;;5.35;4.85;;;14.70;99.90;;;;;;5051758;28;20530;-42
2023/08/30 02:06:02;;;;;;;5.93;4.78;;;14.80;99.90;;;;;;5045855;28;20048;-42
2023/08/30 02:08:54;;;;;;;5.28;4.78;;;14.80;99.90;;;;;;5055874;28;20109;-43
2023/08/30 02:11:23;;;;;;;5.63;4.97;;;14.80;99.90;;;;;;5057222;28;20385;-42
2023/08/30 02:13:51;;;;;;;6.57;4.95;;;14.80;99.90;;;;;;5057485;28;20115;-43
2023/08/30 02:16:18;;;;;;;6.60;5.63;;;14.80;99.90;;;;;;5059379;28;20400;-43
2023/08/30 02:18:44;;;;;;;6.82;5.22;;;14.90;99.90;;;;;;5055074;28;20384;-44
2023/08/30 02:21:10;;;;;;;5.63;5.13;;;14.90;99.90;;;;;;5062987;28;20166;-43
2023/08/30 02:23:36;;;;;;;5.43;4.93;;;14.90;99.90;;;;;;5052897;28;20529;-43
2023/08/30 02:26:03;;;;;;;5.97;4.90;;;15.00;99.90;;;;;;5062482;28;20514;-43
2023/08/30 02:28:29;;;;;;;5.22;4.72;;;15.00;99.90;;;;;;5053368;28;20535;-44
2023/08/30 02:30:54;;;;;;;5.10;4.47;;;15.00;99.90;;;;;;5062922;28;20033;-43
2023/08/30 02:33:20;;;;;;;4.53;4.10;;;15.00;99.90;;;;;;5060867;28;20021;-43
2023/08/30 02:35:46;;;;;;;5.60;5.07;;;15.00;99.90;;;;;;5063360;28;20082;-43
2023/08/30 02:38:12;;;;;;;4.90;4.40;;;15.00;99.90;;;;;;5054625;28;20776;-43
2023/08/30 02:40:37;;;;;;;6.20;5.10;;;15.10;99.90;;;;;;5043379;28;20033;-43
2023/08/30 02:43:03;;;;;;;5.38;4.70;;;15.10;99.90;;;;;;5052924;28;20020;-42
2023/08/30 02:45:28;;;;;;;5.82;4.95;;;15.10;99.90;;;;;;5044760;28;20064;-43
2023/08/30 02:47:57;;;;;;;5.45;4.80;;;15.10;99.90;;;;;;5051543;28;20021;-43
2023/08/30 02:50:23;;;;;;;5.07;4.53;;;15.10;99.90;;;;;;5047620;28;20037;-43
2023/08/30 02:52:48;;;;;;;5.43;4.80;;;15.20;99.90;;;;;;5049306;28;20032;-43
2023/08/30 02:55:14;;;;;;;4.38;3.92;;;15.20;99.90;;;;;;5049773;28;20043;-46
2023/08/30 02:57:40;;;;;;;5.50;5.00;;;15.20;99.90;;;;;;5046788;28;20023;-43
2023/08/30 03:00:06;;;;;;;5.75;5.05;;;15.20;99.90;;;;;;5051461;28;20583;-42
2023/08/30 03:02:35;;;;;;;5.68;5.10;;;15.20;99.90;;;;;;5044554;28;20483;-42
2023/08/30 03:05:01;;;;;;;5.07;4.57;;;15.20;99.90;;;;;;5053871;28;20695;-42
2023/08/30 03:07:29;;;;;;;5.10;4.60;;;15.20;99.90;;;;;;5044294;28;20081;-44
2023/08/30 03:09:57;;;;;;;5.10;4.60;;;15.20;99.90;;;;;;5054677;28;20855;-43
2023/08/30 03:12:26;;;;;;;5.45;4.88;;;15.20;99.90;;;;;;5043436;28;20950;-43
2023/08/30 03:14:51;;;;;;;6.43;5.50;;;15.20;99.90;;;;;;5055434;28;20029;-43
2023/08/30 03:17:20;;;;;;;6.15;5.05;;;15.20;99.90;;;;;;5043142;28;20809;-42
2023/08/30 03:19:45;;;;;;;5.18;4.68;;;15.20;99.90;;;;;;5054963;28;20028;-42
2023/08/30 03:22:11;;;;;;;5.22;4.72;;;15.20;99.90;;;;;;5043021;28;20017;-43
2023/08/30 03:24:36;;;;;;;5.97;4.93;;;15.20;99.90;;;;;;5055449;28;20013;-43
2023/08/30 03:27:02;;;;;;;5.85;4.88;;;15.20;99.90;;;;;;5042239;28;20473;-42
2023/08/30 03:29:29;;;;;;;5.60;4.75;;;15.20;99.90;;;;;;5053937;28;20473;-42
2023/08/30 03:31:57;;;;;;;5.93;5.03;;;15.20;99.90;;;;;;5051602;28;20835;-42
2023/08/30 03:34:23;;;;;;;5.82;4.82;;;15.20;99.90;;;;;;5058548;28;20428;-42
2023/08/30 03:36:53;;;;;;;5.95;5.35;;;15.20;99.90;;;;;;5063215;28;20054;-42
2023/08/30 03:39:25;;;;;;;5.60;4.88;;;15.20;99.90;;;;;;5060972;28;20562;-43
2023/08/30 03:41:51;;;;;;;6.00;5.40;;;15.10;99.90;;;;;;5060077;28;20028;-43
2023/08/30 03:44:16;;;;;;;6.25;5.30;;;15.10;99.90;;;;;;5062039;28;20044;-43
2023/08/30 03:46:42;;;;;;;6.00;5.40;;;15.00;99.90;;;;;;5058005;28;20025;-43
2023/08/30 03:49:07;;;;;;;5.43;4.90;;;14.90;99.90;;;;;;5062919;28;20094;-43
2023/08/30 03:51:42;;;;;;;6.35;5.55;;;14.90;99.90;;;;;;5055421;28;20921;-43
2023/08/30 03:54:16;;;;;;;6.80;5.32;;;14.90;99.90;;;;;;5064907;28;20031;-43
2023/08/30 03:56:44;;;;;;;5.88;5.28;;;14.80;99.90;;;;;;5054615;28;20040;-43
2023/08/30 03:59:17;;;;;;;6.60;5.90;;;14.80;99.90;;;;;;5064412;28;20102;-43
2023/08/30 04:01:44;;;;;;;5.93;5.32;;;14.70;99.90;;;;;;5055348;28;20035;-43
2023/08/30 04:04:10;;;;;;;5.97;5.38;;;14.70;99.90;;;;;;5064976;28;20028;-43
2023/08/30 04:06:38;;;;;;;6.72;5.60;;;14.60;99.90;;;;;;5054473;28;20036;-43
2023/08/30 04:09:04;;;;;;;6.88;5.80;;;14.60;99.90;;;;;;5065069;28;20021;-42
2023/08/30 04:11:30;;;;;;;7.05;6.07;;;14.50;99.90;;;;;;5053472;28;20033;-42
2023/08/30 04:13:58;;;;;;;6.88;6.10;;;14.50;99.90;;;;;;5065919;28;20040;-42
2023/08/30 04:16:33;;;;;;;7.22;6.50;;;14.40;99.90;;;;;;5052032;28;20489;-42
2023/08/30 04:18:59;;;;;;;6.85;6.03;;;14.40;99.90;;;;;;5065733;28;20449;-44
2023/08/30 04:21:25;;;;;;;7.22;6.40;;;14.40;99.90;;;;;;5062830;28;20035;-42
2023/08/30 04:23:50;;;;;;;8.27;6.50;;;14.30;99.90;;;;;;5046740;28;20029;-42
2023/08/30 04:26:16;;;;;;;7.15;6.30;;;14.30;99.90;;;;;;5053508;28;20032;-42
2023/08/30 04:28:41;;;;;;;7.53;5.72;;;14.30;99.90;;;;;;5049837;28;20123;-42
2023/08/30 04:31:07;;;;;;;6.40;5.80;;;14.20;99.90;;;;;;5050415;28;20111;-43
2023/08/30 04:33:36;;;;;;;7.93;6.72;;;14.20;99.90;;;;;;5050682;28;20064;-42
2023/08/30 04:36:03;;;;;;;7.38;6.68;;;14.20;99.90;;;;;;5048867;28;20055;-42
2023/08/30 04:38:29;;;;;;;7.20;6.50;;;14.10;99.90;;;;;;5054013;28;20036;-42
2023/08/30 04:41:02;;;;;;;7.18;6.47;;;14.10;99.90;;;;;;5046313;28;20040;-42
2023/08/30 04:43:28;;;;;;;6.80;6.10;;;14.10;99.90;;;;;;5055675;28;20029;-42
2023/08/30 04:45:54;;;;;;;8.77;6.18;;;14.10;99.90;;;;;;5046528;28;20027;-42
2023/08/30 04:48:24;;;;;;;7.63;6.60;;;14.00;99.90;;;;;;5056146;28;20648;-43
2023/08/30 04:50:57;;;;;;;7.30;6.55;;;14.00;99.90;;;;;;5046923;28;20477;-42
2023/08/30 04:53:22;;;;;;;7.88;6.50;;;14.00;99.90;;;;;;5056665;28;20037;-42
2023/08/30 04:55:48;;;;;;;7.68;6.72;;;13.90;99.90;;;;;;5045669;28;20079;-43
2023/08/30 04:58:13;;;;;;;7.75;6.45;;;13.90;99.90;;;;;;5055573;28;20029;-43
2023/08/30 05:00:51;;;;;;;7.28;6.57;;;13.90;99.90;;;;;;5045431;28;20083;-42
2023/08/30 05:03:17;;;;;;;8.63;6.43;;;13.90;99.90;;;;;;5057216;28;20062;-42
2023/08/30 05:05:46;;;;;;;7.95;7.00;;;13.90;99.90;;;;;;5045084;28;20469;-43
2023/08/30 05:08:12;;;;;;;7.82;7.03;;;13.90;99.90;;;;;;5057179;28;20027;-43
2023/08/30 05:10:40;;;;;;;8.68;7.32;;;13.90;99.90;;;;;;5045509;28;20746;-43
2023/08/30 05:13:06;;;;;;;7.25;6.45;;;13.90;99.90;;;;;;5055191;28;20017;-44
2023/08/30 05:15:31;;;;;;;7.68;6.70;;;13.80;99.90;;;;;;5046195;28;20392;-43
2023/08/30 05:17:57;;;;;;;8.27;6.68;;;13.90;99.90;;;;;;5052800;28;20027;-44
2023/08/30 05:20:23;;;;;;;7.18;6.40;;;13.90;99.90;;;;;;5048531;28;20613;-43
2023/08/30 05:22:48;;;;;;;8.25;7.03;;;13.90;99.90;;;;;;5049910;28;20020;-43
2023/08/30 05:25:14;;;;;;;7.28;6.13;;;13.90;99.90;;;;;;5050901;28;20025;-43
2023/08/30 05:27:39;;;;;;;6.68;5.97;;;14.00;99.90;;;;;;5047412;28;20021;-43
2023/08/30 05:30:06;;;;;;;7.10;6.30;;;13.90;99.90;;;;;;5055091;28;20060;-42
2023/08/30 05:32:31;;;;;;;7.18;6.15;;;14.00;99.90;;;;;;5060765;28;20568;-42
2023/08/30 05:34:59;;;;;;;7.32;6.25;;;14.00;99.90;;;;;;5055041;28;20029;-43
2023/08/30 05:37:27;;;;;;;6.45;5.70;;;14.00;99.90;;;;;;5046056;28;20021;-43
2023/08/30 05:39:53;;;;;;;7.25;6.55;;;14.10;99.90;;;;;;5056196;28;20025;-43
2023/08/30 05:42:18;;;;;;;7.13;6.03;;;14.10;99.90;;;;;;5043916;28;20028;-44
2023/08/30 05:44:44;;;;;;;7.03;6.00;;;14.10;99.90;;;;;;5056154;28;20017;-44
2023/08/30 05:47:14;;;;;;;7.20;6.40;;;14.10;99.90;;;;;;5041109;28;20037;-44
2023/08/30 05:49:40;;;;;;;8.07;6.30;;;14.20;99.90;;;;;;5056298;28;20025;-43
2023/08/30 05:52:06;;;;;;;7.38;6.30;;;14.20;99.90;;;;;;5043077;28;20071;-44
2023/08/30 05:54:33;;;;;;;6.63;5.88;;;14.30;99.90;;;;;;5054111;28;20028;-43
2023/08/30 05:57:05;;;;;;;6.53;5.82;;;14.30;99.90;;;;;;5043539;28;20029;-43
2023/08/30 05:59:30;;;;;;;6.70;5.30;;;14.40;99.90;;;;;;5052869;28;20040;-42
2023/08/30 06:01:56;;;;;;;6.53;5.82;;;14.50;99.90;;;;;;5045157;28;20579;-42
2023/08/30 06:04:22;;;;;;;6.20;5.60;;;14.50;99.90;;;;;;5050763;28;20027;-42
2023/08/30 06:06:47;;;;;;;6.55;5.80;;;14.60;99.90;;;;;;5047965;28;20033;-43
2023/08/30 06:09:13;;;;;;;7.38;5.70;;;14.70;99.90;;;;;;5046654;28;20052;-43
2023/08/30 06:11:41;;;;;;;6.45;5.50;;;14.80;99.90;;;;;;5051461;28;20098;-43
2023/08/30 06:14:07;;;;;;;6.13;5.53;;;14.90;99.90;;;;;;5044705;28;20032;-44
2023/08/30 06:16:36;;;;;;;5.75;5.15;;;15.00;99.90;;;;;;5052291;28;20036;-43
2023/08/30 06:19:02;;;;;;;6.25;5.35;;;15.10;99.90;;;;;;5044064;28;20476;-43
2023/08/30 06:21:34;;;;;;;5.45;4.88;;;15.20;99.90;;;;;;5054302;28;20031;-43
2023/08/30 06:23:59;;;;;;;7.27;5.53;;;15.20;99.90;;;;;;5043674;28;20025;-43
2023/08/30 06:26:25;;;;;;;5.72;5.03;;;15.20;99.90;;;;;;5055213;28;20286;-43
2023/08/30 06:28:51;;;;;;;6.88;5.20;;;15.20;99.90;;;;;;5044523;28;20021;-43
2023/08/30 06:31:16;;;;;;;6.32;5.57;;;15.30;99.90;;;;;;5055325;28;20025;-43
2023/08/30 06:33:42;;;;;;;6.10;5.50;;;15.30;99.90;;;;;;5059225;28;20673;-43
2023/08/30 06:36:07;;;;;;;5.50;5.00;;;15.30;99.90;;;;;;5050781;28;20489;-43
2023/08/30 06:38:33;;;;;;;5.82;5.10;;;15.30;99.90;;;;;;5063276;28;20455;-43
2023/08/30 06:40:59;;;;;;;6.40;5.45;;;15.40;99.90;;;;;;5053089;28;20029;-43
2023/08/30 06:43:24;;;;;;;6.43;5.10;;;15.40;99.90;;;;;;5061834;28;20027;-43
2023/08/30 06:45:50;;;;;;;5.30;4.80;;;15.40;99.90;;;;;;5055939;28;20086;-42
2023/08/30 06:48:15;;;;;;;5.70;5.10;;;15.40;99.90;;;;;;5058842;28;20380;-43
2023/08/30 06:50:41;;;;;;;5.22;4.68;;;15.50;99.90;;;;;;5057630;28;20052;-42
2023/08/30 06:53:09;;;;;;;5.68;5.07;;;15.40;99.90;;;;;;5056035;28;20036;-43
2023/08/30 06:55:36;;;;;;;5.80;5.20;;;15.50;99.90;;;;;;5060230;28;20086;-44
2023/08/30 06:58:03;;;;;;;5.47;4.88;;;15.40;99.90;;;;;;5053345;28;20033;-41
2023/08/30 07:00:28;;;;;;;5.20;4.50;;;15.50;99.90;;;;;;5061225;28;20055;-43
2023/08/30 07:02:54;;;;;;;5.13;4.10;;;15.50;99.90;;;;;;5050617;28;20029;-42
2023/08/30 07:05:20;;;;;;;5.53;4.60;;;15.50;99.90;;;;;;5063573;28;20105;-42
2023/08/30 07:07:45;;;;;;;5.00;4.50;;;15.60;99.90;;;;;;5056548;28;20110;-42
2023/08/30 07:10:11;;;;;;;4.65;4.25;;;15.50;99.90;;;;;;5067158;28;20138;-42
2023/08/30 07:12:37;;;;;;;5.65;4.40;;;15.60;99.90;;;;;;5053756;28;20525;-42
2023/08/30 07:15:03;;;;;;;4.80;4.30;;;15.60;99.90;;;;;;5066798;28;20044;-43
2023/08/30 07:17:29;;;;;;;4.95;4.45;;;15.60;99.90;;;;;;5054402;28;20025;-42
2023/08/30 07:19:54;;;;;;;5.28;4.28;;;15.60;99.90;;;;;;5067000;28;20032;-42
2023/08/30 07:22:20;;;;;;;4.80;4.38;;;15.60;99.90;;;;;;5055863;28;20574;-42
2023/08/30 07:24:46;;;;;;;5.13;4.63;;;15.60;99.90;;;;;;5064351;28;20024;-42
2023/08/30 07:27:14;;;;;;;6.03;4.43;;;15.60;99.90;;;;;;5058020;28;20435;-42
2023/08/30 07:29:40;;;;;;;6.50;5.00;;;15.60;99.90;;;;;;5062820;28;20070;-42
2023/08/30 07:32:07;;;;;;;6.63;4.70;;;15.50;99.90;;;;;;5061326;28;20021;-42
2023/08/30 07:34:33;;;;;;;5.70;4.72;;;15.50;99.90;;;;;;5066295;28;20423;-43
2023/08/30 07:36:59;;;;;;;5.15;4.45;;;15.40;99.90;;;;;;5062259;28;20663;-42
2023/08/30 07:39:24;;;;;;;5.10;4.60;;;15.40;99.90;;;;;;5056176;28;20036;-43
2023/08/30 07:41:50;;;;;;;4.78;4.28;;;15.40;99.90;;;;;;5048037;28;20025;-42
2023/08/30 07:44:20;;;;;;;5.22;4.70;;;15.30;99.90;;;;;;5058443;28;20858;-43
2023/08/30 07:46:45;;;;;;;6.80;5.57;;;15.30;99.90;;;;;;5047880;28;20437;-42
2023/08/30 07:49:11;;;;;;;5.18;4.68;;;15.30;99.90;;;;;;5057507;28;20151;-43
2023/08/30 07:51:39;;;;;;;4.88;4.38;;;15.30;99.90;;;;;;5046466;28;20021;-43
2023/08/30 07:54:05;;;;;;;5.28;4.55;;;15.20;99.90;;;;;;5052878;28;20025;-43
2023/08/30 07:56:30;;;;;;;4.78;3.80;;;15.20;99.90;;;;;;5066918;28;20029;-42
2023/08/30 07:58:57;;;;;;;4.43;4.00;;;15.20;99.90;;;;;;5053833;28;20191;-42
2023/08/30 08:01:22;;;;;;;5.25;4.20;;;15.20;99.90;;;;;;5065303;28;20108;-44
2023/08/30 08:03:54;;;;;;;5.90;4.43;;;15.20;99.90;;;;;;5053815;28;20163;-43
2023/08/30 08:06:19;;;;;;;4.83;4.33;;;15.20;99.90;;;;;;5065255;28;20032;-43
2023/08/30 08:08:45;;;;;;;4.80;4.30;;;15.20;99.90;;;;;;5055707;28;20519;-43
2023/08/30 08:11:14;;;;;;;4.85;4.25;;;15.20;99.90;;;;;;5062272;28;20035;-43
2023/08/30 08:13:39;;;;;;;6.40;4.70;;;15.10;99.90;;;;;;5058837;28;20538;-43
2023/08/30 08:16:05;;;;;;;5.25;4.75;;;15.10;99.90;;;;;;5059252;28;20040;-43
2023/08/30 08:18:34;;;;;;;6.43;4.90;;;15.10;99.90;;;;;;5062553;28;20028;-43
2023/08/30 08:20:59;;;;;;;6.40;5.20;;;15.00;99.90;;;;;;5058804;28;20028;-43
2023/08/30 08:23:31;;;;;;;5.07;4.57;;;15.00;99.90;;;;;;5063399;28;20626;-43
2023/08/30 08:26:00;;;;;;;6.87;4.70;;;15.00;99.90;;;;;;5054792;28;20051;-44
2023/08/30 08:28:26;;;;;;;5.75;5.00;;;15.00;99.90;;;;;;5064480;28;20282;-43
2023/08/30 08:30:52;;;;;;;5.43;4.88;;;15.00;99.90;;;;;;5054268;28;20025;-43
2023/08/30 08:33:18;;;;;;;5.13;4.60;;;15.00;99.90;;;;;;5057036;28;20032;-43
2023/08/30 08:35:47;;;;;;;5.60;4.97;;;15.00;99.90;;;;;;5056543;28;20048;-44
2023/08/30 08:38:13;;;;;;;5.38;4.00;;;15.00;99.90;;;;;;5044496;28;20025;-43
2023/08/30 08:40:42;;;;;;;4.88;4.38;;;15.00;99.90;;;;;;5057587;28;20033;-43
2023/08/30 08:43:12;;;;;;;5.72;3.92;;;15.00;99.90;;;;;;5044769;28;20025;-44
2023/08/30 08:45:38;;;;;;;4.85;4.20;;;15.00;99.90;;;;;;5057099;28;20059;-44
2023/08/30 08:48:05;;;;;;;6.38;4.55;;;15.10;99.90;;;;;;5045067;28;20064;-43
2023/08/30 08:50:34;;;;;;;4.13;3.72;;;15.10;99.90;;;;;;5057100;28;20111;-43
2023/08/30 08:53:07;;;;;;;5.68;4.53;;;15.10;99.90;;;;;;5045822;28;20017;-43
2023/08/30 08:55:34;;;;;;;6.32;4.75;;;15.10;99.90;;;;;;5049729;28;20064;-43
2023/08/30 08:58:00;;;;;;;5.45;4.47;;;15.10;99.90;;;;;;5063499;28;20050;-44
2023/08/30 09:00:26;;;;;;;3.97;3.67;;;15.10;99.90;;;;;;5056311;28;20527;-43
2023/08/30 09:02:54;;;;;;;4.63;4.18;;;15.10;99.90;;;;;;5061918;28;20024;-43
2023/08/30 09:05:26;;;;;;;4.32;3.88;;;15.10;99.90;;;;;;5057610;28;20408;-43
2023/08/30 09:07:53;;;;;;;6.07;5.47;;;15.10;99.90;;;;;;5060116;28;20024;-43
2023/08/30 09:10:20;;;;;;;5.38;4.85;;;15.10;99.90;;;;;;5059506;28;20128;-43
2023/08/30 09:12:46;;;;;;;5.05;4.40;;;15.10;99.90;;;;;;5045652;28;20703;-43
2023/08/30 09:15:11;;;;;;;4.85;4.45;;;15.10;99.90;;;;;;5045479;28;20120;-44
2023/08/30 09:17:38;;;;;;;5.68;4.40;;;15.10;99.90;;;;;;5052052;28;20025;-44
2023/08/30 09:20:11;;;;;;;5.38;4.88;;;15.20;99.90;;;;;;5044378;28;20804;-44
2023/08/30 09:22:40;;;;;;;5.47;4.97;;;15.20;99.90;;;;;;5054874;28;20049;-43
2023/08/30 09:25:11;;;;;;;5.45;4.95;;;15.20;99.90;;;;;;5044424;28;20025;-43
2023/08/30 09:27:41;;;;;;;5.03;4.53;;;15.20;99.90;;;;;;5053883;28;20378;-43
2023/08/30 09:30:10;;;;;;;4.30;3.90;;;15.20;99.90;;;;;;5046323;28;20033;-43
2023/08/30 09:32:42;;;;;;;6.13;3.95;;;15.30;99.90;;;;;;5045940;28;20033;-43
2023/08/30 09:35:08;;;;;;;;;;;15.30;99.90;;;;;;5044607;28;20029;-43
2023/08/30 09:37:34;;;;;;;3.67;3.35;;;15.30;99.90;;;;;;5047813;28;19912;-44
2023/08/30 09:40:00;;;;;;;3.47;3.17;;;15.30;99.90;;;;;;5062491;28;20028;-43
2023/08/30 09:42:26;;;;;;;4.22;3.47;;;15.40;99.90;;;;;;5051617;28;20029;-44
2023/08/30 09:44:55;;;;;;;4.65;3.28;;;15.40;99.90;;;;;;5064446;28;20043;-44
2023/08/30 09:47:25;;;;;;;4.05;3.33;;;15.50;99.90;;;;;;5050937;28;20370;-43
2023/08/30 09:49:55;;;;;;;3.95;3.63;;;15.50;99.90;;;;;;5063999;28;20059;-42
2023/08/30 09:52:23;;;;;;;3.78;3.38;;;15.50;99.90;;;;;;5053326;28;20041;-42
2023/08/30 09:54:53;;;;;;;4.43;4.03;;;15.50;99.90;;;;;;5062266;28;20032;-42
2023/08/30 09:57:21;;;;;;;3.65;3.30;;;15.50;99.90;;;;;;5054638;28;20388;-42
2023/08/30 09:59:50;;;;;;;3.72;3.30;;;15.60;99.90;;;;;;5060657;28;20118;-42
2023/08/30 10:02:17;;;;;;;3.90;3.05;;;15.60;99.90;;;;;;5056703;28;20033;-42
2023/08/30 10:04:47;;;;;;;2.88;2.67;;;15.70;99.90;;;;;;5058252;28;20025;-42
2023/08/30 10:07:14;;;;;;;3.42;3.10;;;15.70;99.90;;;;;;5058313;28;20025;-43
2023/08/30 10:09:44;;;;;;;3.28;2.90;;;15.80;99.90;;;;;;5056021;28;20786;-44
2023/08/30 10:12:10;;;;;;;3.00;2.72;;;15.80;99.90;;;;;;5060353;28;20056;-44
2023/08/30 10:14:36;;;;;;;3.08;2.83;;;15.90;99.90;;;;;;5054359;28;20028;-44
2023/08/30 10:17:03;;;;;;;3.22;2.92;;;16.00;99.90;;;;;;5062410;28;20800;-43
2023/08/30 10:19:29;;;;;;;3.53;3.22;;;16.10;99.90;;;;;;5052791;28;20544;-44
2023/08/30 10:22:08;;;;;;;3.90;3.60;;;16.10;99.90;;;;;;5061956;28;20029;-44
2023/08/30 10:24:40;;;;;;;3.78;3.20;;;16.20;99.90;;;;;;5053045;28;20029;-44
2023/08/30 10:27:09;;;;;;;3.00;2.75;;;16.20;99.90;;;;;;5062253;28;20101;-44
2023/08/30 10:29:36;;;;;;;3.83;3.38;;;16.20;99.90;;;;;;5051860;28;20032;-44
2023/08/30 10:32:06;;;;;;;3.50;3.20;;;16.20;99.90;;;;;;5063837;28;20028;-44
2023/08/30 10:34:39;;;;;;;3.60;3.30;;;16.30;99.90;;;;;;5044169;28;20626;-44
2023/08/30 10:37:09;;;;;;;3.88;3.50;;;16.30;99.90;;;;;;5043559;28;20039;-43
2023/08/30 10:39:37;;;;;;;3.45;3.15;;;16.40;99.90;;;;;;5058100;28;20027;-44
2023/08/30 10:42:12;;;;;;;3.38;3.08;;;16.40;99.90;;;;;;5048280;28;20029;-44
2023/08/30 10:45:02;;;;;;;3.38;3.08;;;16.60;99.90;;;;;;5059598;28;20025;-44
2023/08/30 10:47:30;;;;;;;2.83;2.63;;;16.60;99.90;;;;;;5047555;28;20039;-44
2023/08/30 10:49:57;;;;;;;3.55;3.25;;;16.70;99.90;;;;;;5059690;28;20090;-44
2023/08/30 10:52:29;;;;;;;3.80;3.50;;;16.70;99.90;;;;;;5047695;28;20104;-44
2023/08/30 10:55:07;;;;;;;3.70;3.40;;;16.80;99.90;;;;;;5060399;28;20063;-43
2023/08/30 10:57:33;;;;;;;3.42;3.13;;;16.80;99.90;;;;;;5047158;28;20124;-43
2023/08/30 11:00:11;;;;;;;4.70;4.20;;;16.90;99.90;;;;;;5059234;28;20131;-44
2023/08/30 11:02:38;;;;;;;5.68;5.13;;;17.00;99.90;;;;;;5047664;28;20021;-43
2023/08/30 11:05:09;;;;;;;4.75;4.35;;;17.00;99.90;;;;;;5058118;28;20041;-43
2023/08/30 11:07:34;;;;;;;4.80;4.40;;;17.10;99.90;;;;;;5048083;28;20749;-43
2023/08/30 11:10:00;;;;;;;5.15;4.65;;;17.20;99.90;;;;;;5058306;28;20017;-44
2023/08/30 11:12:26;;;;;;;5.45;4.95;;;17.40;99.90;;;;;;5048953;28;20468;-43
2023/08/30 11:14:53;;;;;;;5.90;5.40;;;17.40;99.90;;;;;;5056177;28;20029;-43
2023/08/30 11:17:19;;;;;;;5.35;4.85;;;17.50;99.90;;;;;;5051084;28;20040;-43
2023/08/30 11:19:45;;;;;;;5.60;5.10;;;17.50;99.90;;;;;;5052495;28;20070;-43
2023/08/30 11:22:13;;;;;;;5.50;5.10;;;17.50;99.90;;;;;;5053406;28;20025;-43
2023/08/30 11:24:39;;;;;;;7.40;6.70;;;17.50;99.90;;;;;;5051083;28;20027;-44
2023/08/30 11:27:05;;;;;;;6.40;5.90;;;17.60;99.90;;;;;;5055039;28;20083;-43
2023/08/30 11:29:30;;;;;;;6.25;5.65;;;17.60;99.90;;;;;;5048855;28;20017;-43
2023/08/30 11:31:56;;;;;;;6.72;6.13;;;17.70;99.90;;;;;;5057604;28;20475;-43
2023/08/30 11:34:22;;;;;;;5.50;5.00;;;17.70;99.90;;;;;;5061681;28;20067;-43
2023/08/30 11:36:49;;;;;;;6.18;5.57;;;17.70;99.90;;;;;;5055636;28;20055;-43
2023/08/30 11:39:19;;;;;;;6.47;5.88;;;17.70;99.90;;;;;;5065436;28;20374;-43
2023/08/30 11:41:44;;;;;;;5.47;4.63;;;17.70;99.90;;;;;;5057617;28;20025;-43
2023/08/30 11:44:10;;;;;;;4.22;3.83;;;17.70;99.90;;;;;;5046491;28;20044;-42
2023/08/30 11:46:36;;;;;;;3.70;3.40;;;17.80;99.90;;;;;;5058943;28;20029;-44
2023/08/30 11:49:02;;;;;;;3.50;3.15;;;17.90;99.90;;;;;;5046309;28;20025;-43
2023/08/30 11:51:32;;;;;;;3.40;2.95;;;18.00;99.90;;;;;;5057539;28;20104;-42
2023/08/30 11:53:58;;;;;;;4.25;3.65;;;18.10;99.90;;;;;;5046458;28;20074;-43
2023/08/30 11:56:24;;;;;;;3.17;2.88;;;18.20;99.90;;;;;;5055567;28;20127;-42
2023/08/30 11:58:51;;;;;;;3.25;2.80;;;18.20;99.90;;;;;;5048672;28;20134;-42
2023/08/30 12:01:18;;;;;;;4.15;3.67;;;18.20;99.90;;;;;;5052345;28;20456;-43
2023/08/30 12:03:49;;;;;;;5.28;3.42;;;18.10;99.90;;;;;;5051192;28;20021;-42
2023/08/30 12:06:16;;;;;;;4.28;3.67;;;18.10;99.90;;;;;;5051588;28;20032;-44
2023/08/30 12:08:42;;;;;;;3.85;3.08;;;18.10;99.90;;;;;;5052466;28;20032;-45
2023/08/30 12:11:20;;;;;;;7.00;3.65;;;18.10;99.90;;;;;;5048849;28;20024;-43
2023/08/30 12:13:47;;;;;;;3.58;3.20;;;18.10;99.90;;;;;;5053995;28;20108;-44
2023/08/30 12:16:17;;;;;;;3.80;2.72;;;18.10;99.90;;;;;;5047334;28;20041;-43
2023/08/30 12:18:43;;;;;;;2.92;2.40;;;18.00;99.90;;;;;;5055587;28;20032;-43
2023/08/30 12:21:08;;;;;;;3.83;2.58;;;18.00;99.90;;;;;;5046146;28;20029;-44
2023/08/30 12:23:34;;;;;;;3.40;2.17;;;18.00;99.90;;;;;;5057699;28;20017;-43
2023/08/30 12:26:08;;;;;;;2.33;1.90;;;18.00;99.90;;;;;;5047010;28;20033;-45
2023/08/30 12:28:38;;;;;;;2.95;2.00;;;18.10;99.90;;;;;;5056424;28;20058;-42
2023/08/30 12:31:10;;;;;;;2.28;1.83;;;18.20;99.90;;;;;;5046574;28;20033;-45
2023/08/30 12:33:37;;;;;;;4.03;2.03;;;18.30;99.90;;;;;;5062276;28;20047;-44
2023/08/30 12:36:03;;;;;;;3.33;1.83;;;18.40;99.90;;;;;;5064732;28;20946;-43
2023/08/30 12:38:29;;;;;;;2.35;1.90;;;18.50;99.90;;;;;;5053618;28;20115;-44
2023/08/30 12:40:55;;;;;;;3.08;1.92;;;18.60;99.90;;;;;;5065952;28;20131;-42
2023/08/30 12:43:22;;;;;;;3.85;1.85;;;18.50;99.90;;;;;;5051788;28;20114;-43
2023/08/30 12:45:49;;;;;;;2.38;1.80;;;18.60;99.90;;;;;;5066173;28;20549;-43
2023/08/30 12:48:16;;;;;;;3.95;1.90;;;18.60;99.90;;;;;;5054045;28;20102;-42